sensor_id;sensor_type;location;lat;lon;timestamp;P1;durP1;ratioP1;P2;durP2;ratioP2
50128;SDS011;36026;45.478;9.224;2023-02-01T00:01:26;58.08;;;30.55;;
50128;SDS011;36026;45.478;9.224;2023-02-01T00:04:28;64.30;;;30.75;;
50128;SDS011;36026;45.478;9.224;2023-02-01T00:07:31;58.45;;;30.13;;
50128;SDS011;36026;45.478;9.224;2023-02-01T00:10:33;58.17;;;28.90;;
50128;SDS011;36026;45.478;9.224;2023-02-01T00:13:36;58.28;;;29.73;;
50128;SDS011;36026;45.478;9.224;2023-02-01T00:16:38;57.38;;;28.17;;
50128;SDS011;36026;45.478;9.224;2023-02-01T00:19:40;56.05;;;30.15;;
50128;SDS011;36026;45.478;9.224;2023-02-01T00:22:43;58.70;;;28.73;;
50128;SDS011;36026;45.478;9.224;2023-02-01T00:25:45;56.10;;;29.05;;
50128;SDS011;36026;45.478;9.224;2023-02-01T00:28:47;59.03;;;28.60;;
50128;SDS011;36026;45.478;9.224;2023-02-01T00:31:49;51.50;;;29.42;;
50128;SDS011;36026;45.478;9.224;2023-02-01T00:34:51;47.30;;;26.20;;
50128;SDS011;36026;45.478;9.224;2023-02-01T00:37:54;68.60;;;34.58;;
50128;SDS011;36026;45.478;9.224;2023-02-01T00:41:01;204.30;;;90.00;;
50128;SDS011;36026;45.478;9.224;2023-02-01T00:44:04;83.43;;;40.58;;
50128;SDS011;36026;45.478;9.224;2023-02-01T00:47:05;52.13;;;29.27;;
50128;SDS011;36026;45.478;9.224;2023-02-01T00:50:07;51.85;;;28.35;;
50128;SDS011;36026;45.478;9.224;2023-02-01T00:53:11;96.85;;;49.10;;
50128;SDS011;36026;45.478;9.224;2023-02-01T00:56:13;54.72;;;29.05;;
50128;SDS011;36026;45.478;9.224;2023-02-01T00:59:15;48.55;;;25.13;;
50128;SDS011;36026;45.478;9.224;2023-02-01T01:02:16;47.15;;;25.80;;
50128;SDS011;36026;45.478;9.224;2023-02-01T01:05:18;54.13;;;26.35;;
50128;SDS011;36026;45.478;9.224;2023-02-01T01:08:21;43.03;;;24.30;;
50128;SDS011;36026;45.478;9.224;2023-02-01T01:11:23;45.08;;;24.50;;
50128;SDS011;36026;45.478;9.224;2023-02-01T01:14:26;50.03;;;26.65;;
50128;SDS011;36026;45.478;9.224;2023-02-01T01:17:28;50.25;;;26.45;;
50128;SDS011;36026;45.478;9.224;2023-02-01T01:20:29;46.05;;;25.30;;
50128;SDS011;36026;45.478;9.224;2023-02-01T01:23:33;46.63;;;23.80;;
50128;SDS011;36026;45.478;9.224;2023-02-01T01:26:35;46.60;;;24.85;;
50128;SDS011;36026;45.478;9.224;2023-02-01T01:29:36;46.42;;;22.90;;
50128;SDS011;36026;45.478;9.224;2023-02-01T01:32:38;42.83;;;22.13;;
50128;SDS011;36026;45.478;9.224;2023-02-01T01:35:40;43.13;;;21.65;;
50128;SDS011;36026;45.478;9.224;2023-02-01T01:38:43;36.30;;;20.98;;
50128;SDS011;36026;45.478;9.224;2023-02-01T01:41:45;42.63;;;21.98;;
50128;SDS011;36026;45.478;9.224;2023-02-01T01:44:56;42.60;;;20.98;;
50128;SDS011;36026;45.478;9.224;2023-02-01T01:48:04;38.97;;;20.30;;
50128;SDS011;36026;45.478;9.224;2023-02-01T01:51:08;39.08;;;19.95;;
50128;SDS011;36026;45.478;9.224;2023-02-01T01:54:13;41.20;;;20.25;;
50128;SDS011;36026;45.478;9.224;2023-02-01T01:57:18;38.58;;;19.40;;
50128;SDS011;36026;45.478;9.224;2023-02-01T02:00:22;37.30;;;19.70;;
50128;SDS011;36026;45.478;9.224;2023-02-01T02:03:25;37.63;;;20.80;;
50128;SDS011;36026;45.478;9.224;2023-02-01T02:06:33;38.85;;;19.58;;
50128;SDS011;36026;45.478;9.224;2023-02-01T02:09:41;35.95;;;18.83;;
50128;SDS011;36026;45.478;9.224;2023-02-01T02:12:44;38.35;;;19.98;;
50128;SDS011;36026;45.478;9.224;2023-02-01T02:15:49;34.38;;;18.65;;
50128;SDS011;36026;45.478;9.224;2023-02-01T02:19:06;34.88;;;18.60;;
50128;SDS011;36026;45.478;9.224;2023-02-01T02:22:26;34.30;;;19.48;;
50128;SDS011;36026;45.478;9.224;2023-02-01T02:25:50;40.03;;;18.80;;
50128;SDS011;36026;45.478;9.224;2023-02-01T02:32:58;40.35;;;19.67;;
50128;SDS011;36026;45.478;9.224;2023-02-01T02:36:28;41.75;;;19.67;;
50128;SDS011;36026;45.478;9.224;2023-02-01T02:39:36;38.08;;;17.90;;
50128;SDS011;36026;45.478;9.224;2023-02-01T02:42:43;38.20;;;18.20;;
50128;SDS011;36026;45.478;9.224;2023-02-01T02:46:11;33.33;;;17.35;;
50128;SDS011;36026;45.478;9.224;2023-02-01T02:49:36;29.85;;;16.95;;
50128;SDS011;36026;45.478;9.224;2023-02-01T02:52:44;32.38;;;17.35;;
50128;SDS011;36026;45.478;9.224;2023-02-01T02:56:07;36.78;;;19.73;;
50128;SDS011;36026;45.478;9.224;2023-02-01T02:59:28;34.08;;;19.25;;
50128;SDS011;36026;45.478;9.224;2023-02-01T03:02:47;34.85;;;18.38;;
50128;SDS011;36026;45.478;9.224;2023-02-01T03:06:11;34.58;;;17.70;;
50128;SDS011;36026;45.478;9.224;2023-02-01T03:09:16;35.13;;;17.75;;
50128;SDS011;36026;45.478;9.224;2023-02-01T03:12:22;34.83;;;18.58;;
50128;SDS011;36026;45.478;9.224;2023-02-01T03:15:42;35.30;;;18.35;;
50128;SDS011;36026;45.478;9.224;2023-02-01T03:18:48;32.50;;;18.17;;
50128;SDS011;36026;45.478;9.224;2023-02-01T03:21:55;31.35;;;18.02;;
50128;SDS011;36026;45.478;9.224;2023-02-01T03:25:01;34.95;;;18.30;;
50128;SDS011;36026;45.478;9.224;2023-02-01T03:28:08;37.58;;;18.83;;
50128;SDS011;36026;45.478;9.224;2023-02-01T03:31:11;32.05;;;18.45;;
50128;SDS011;36026;45.478;9.224;2023-02-01T03:34:14;29.75;;;16.90;;
50128;SDS011;36026;45.478;9.224;2023-02-01T03:37:18;32.38;;;16.35;;
50128;SDS011;36026;45.478;9.224;2023-02-01T03:40:23;26.38;;;14.57;;
50128;SDS011;36026;45.478;9.224;2023-02-01T03:43:25;29.13;;;15.55;;
50128;SDS011;36026;45.478;9.224;2023-02-01T03:46:30;32.00;;;15.50;;
50128;SDS011;36026;45.478;9.224;2023-02-01T03:49:34;27.75;;;15.90;;
50128;SDS011;36026;45.478;9.224;2023-02-01T03:52:38;30.65;;;15.43;;
50128;SDS011;36026;45.478;9.224;2023-02-01T03:55:43;27.67;;;15.18;;
50128;SDS011;36026;45.478;9.224;2023-02-01T03:58:45;33.83;;;17.08;;
50128;SDS011;36026;45.478;9.224;2023-02-01T04:01:58;33.58;;;14.70;;
50128;SDS011;36026;45.478;9.224;2023-02-01T04:05:01;29.05;;;15.13;;
50128;SDS011;36026;45.478;9.224;2023-02-01T04:08:04;29.48;;;15.20;;
50128;SDS011;36026;45.478;9.224;2023-02-01T04:11:06;34.63;;;15.50;;
50128;SDS011;36026;45.478;9.224;2023-02-01T04:14:08;31.25;;;14.38;;
50128;SDS011;36026;45.478;9.224;2023-02-01T04:17:09;27.38;;;14.80;;
50128;SDS011;36026;45.478;9.224;2023-02-01T04:20:11;27.05;;;14.40;;
50128;SDS011;36026;45.478;9.224;2023-02-01T04:23:14;28.15;;;14.27;;
50128;SDS011;36026;45.478;9.224;2023-02-01T04:26:16;30.13;;;14.13;;
50128;SDS011;36026;45.478;9.224;2023-02-01T04:29:18;27.05;;;14.23;;
50128;SDS011;36026;45.478;9.224;2023-02-01T04:32:20;31.48;;;15.38;;
50128;SDS011;36026;45.478;9.224;2023-02-01T04:35:22;28.70;;;14.80;;
50128;SDS011;36026;45.478;9.224;2023-02-01T04:38:25;26.77;;;14.10;;
50128;SDS011;36026;45.478;9.224;2023-02-01T04:41:29;28.63;;;13.80;;
50128;SDS011;36026;45.478;9.224;2023-02-01T04:44:31;26.65;;;13.98;;
50128;SDS011;36026;45.478;9.224;2023-02-01T04:47:32;28.55;;;13.27;;
50128;SDS011;36026;45.478;9.224;2023-02-01T04:50:34;26.42;;;13.90;;
50128;SDS011;36026;45.478;9.224;2023-02-01T04:53:37;26.15;;;13.63;;
50128;SDS011;36026;45.478;9.224;2023-02-01T04:56:39;29.17;;;14.75;;
50128;SDS011;36026;45.478;9.224;2023-02-01T04:59:40;21.20;;;12.25;;
50128;SDS011;36026;45.478;9.224;2023-02-01T05:02:42;30.92;;;13.95;;
50128;SDS011;36026;45.478;9.224;2023-02-01T05:05:44;26.88;;;12.88;;
50128;SDS011;36026;45.478;9.224;2023-02-01T05:08:47;21.73;;;12.40;;
50128;SDS011;36026;45.478;9.224;2023-02-01T05:11:48;23.88;;;11.75;;
50128;SDS011;36026;45.478;9.224;2023-02-01T05:15:08;24.25;;;12.80;;
50128;SDS011;36026;45.478;9.224;2023-02-01T05:18:09;28.35;;;12.32;;
50128;SDS011;36026;45.478;9.224;2023-02-01T05:21:12;26.55;;;12.70;;
50128;SDS011;36026;45.478;9.224;2023-02-01T05:24:15;23.67;;;11.93;;
50128;SDS011;36026;45.478;9.224;2023-02-01T05:27:19;25.67;;;12.52;;
50128;SDS011;36026;45.478;9.224;2023-02-01T05:30:21;22.85;;;11.35;;
50128;SDS011;36026;45.478;9.224;2023-02-01T05:33:23;23.13;;;11.75;;
50128;SDS011;36026;45.478;9.224;2023-02-01T05:36:25;21.50;;;11.50;;
50128;SDS011;36026;45.478;9.224;2023-02-01T05:39:28;21.88;;;12.25;;
50128;SDS011;36026;45.478;9.224;2023-02-01T05:42:29;29.65;;;13.20;;
50128;SDS011;36026;45.478;9.224;2023-02-01T05:45:31;21.48;;;10.43;;
50128;SDS011;36026;45.478;9.224;2023-02-01T05:48:32;20.35;;;11.27;;
50128;SDS011;36026;45.478;9.224;2023-02-01T05:51:34;25.23;;;10.02;;
50128;SDS011;36026;45.478;9.224;2023-02-01T05:54:37;18.42;;;9.68;;
50128;SDS011;36026;45.478;9.224;2023-02-01T05:57:39;24.60;;;11.23;;
50128;SDS011;36026;45.478;9.224;2023-02-01T06:00:40;28.13;;;12.73;;
50128;SDS011;36026;45.478;9.224;2023-02-01T06:03:42;21.15;;;10.93;;
50128;SDS011;36026;45.478;9.224;2023-02-01T06:06:44;24.02;;;11.18;;
50128;SDS011;36026;45.478;9.224;2023-02-01T06:09:47;20.65;;;10.88;;
50128;SDS011;36026;45.478;9.224;2023-02-01T06:12:48;28.63;;;11.52;;
50128;SDS011;36026;45.478;9.224;2023-02-01T06:15:50;23.05;;;11.23;;
50128;SDS011;36026;45.478;9.224;2023-02-01T06:18:52;24.05;;;11.75;;
50128;SDS011;36026;45.478;9.224;2023-02-01T06:21:54;27.38;;;12.02;;
50128;SDS011;36026;45.478;9.224;2023-02-01T06:24:57;27.58;;;12.40;;
50128;SDS011;36026;45.478;9.224;2023-02-01T06:27:59;27.98;;;12.30;;
50128;SDS011;36026;45.478;9.224;2023-02-01T06:31:02;29.77;;;12.50;;
50128;SDS011;36026;45.478;9.224;2023-02-01T06:34:06;22.30;;;11.02;;
50128;SDS011;36026;45.478;9.224;2023-02-01T06:37:07;28.88;;;12.43;;
50128;SDS011;36026;45.478;9.224;2023-02-01T06:40:12;24.90;;;11.63;;
50128;SDS011;36026;45.478;9.224;2023-02-01T06:43:14;33.00;;;12.97;;
50128;SDS011;36026;45.478;9.224;2023-02-01T06:46:16;27.25;;;13.40;;
50128;SDS011;36026;45.478;9.224;2023-02-01T06:49:17;25.20;;;12.77;;
50128;SDS011;36026;45.478;9.224;2023-02-01T06:52:19;27.00;;;13.15;;
50128;SDS011;36026;45.478;9.224;2023-02-01T06:55:23;29.80;;;14.00;;
50128;SDS011;36026;45.478;9.224;2023-02-01T06:58:27;27.40;;;13.70;;
50128;SDS011;36026;45.478;9.224;2023-02-01T07:01:29;32.25;;;14.07;;
50128;SDS011;36026;45.478;9.224;2023-02-01T07:04:31;28.08;;;14.13;;
50128;SDS011;36026;45.478;9.224;2023-02-01T07:07:32;26.45;;;13.38;;
50128;SDS011;36026;45.478;9.224;2023-02-01T07:10:35;28.60;;;12.75;;
50128;SDS011;36026;45.478;9.224;2023-02-01T07:13:37;26.33;;;14.03;;
50128;SDS011;36026;45.478;9.224;2023-02-01T07:16:40;27.45;;;13.70;;
50128;SDS011;36026;45.478;9.224;2023-02-01T07:19:41;25.98;;;12.77;;
50128;SDS011;36026;45.478;9.224;2023-02-01T07:22:43;26.77;;;13.00;;
50128;SDS011;36026;45.478;9.224;2023-02-01T07:25:46;22.95;;;12.23;;
50128;SDS011;36026;45.478;9.224;2023-02-01T07:28:48;25.08;;;12.07;;
50128;SDS011;36026;45.478;9.224;2023-02-01T07:31:49;22.23;;;12.18;;
50128;SDS011;36026;45.478;9.224;2023-02-01T07:34:51;25.42;;;12.45;;
50128;SDS011;36026;45.478;9.224;2023-02-01T07:37:53;21.33;;;11.07;;
50128;SDS011;36026;45.478;9.224;2023-02-01T07:40:58;22.73;;;12.02;;
50128;SDS011;36026;45.478;9.224;2023-02-01T07:44:00;22.25;;;11.52;;
50128;SDS011;36026;45.478;9.224;2023-02-01T07:47:02;19.35;;;10.80;;
50128;SDS011;36026;45.478;9.224;2023-02-01T07:50:04;21.50;;;11.18;;
50128;SDS011;36026;45.478;9.224;2023-02-01T07:53:06;20.73;;;10.43;;
50128;SDS011;36026;45.478;9.224;2023-02-01T07:56:11;17.35;;;10.30;;
50128;SDS011;36026;45.478;9.224;2023-02-01T07:59:13;28.42;;;14.35;;
50128;SDS011;36026;45.478;9.224;2023-02-01T08:02:16;32.50;;;15.38;;
50128;SDS011;36026;45.478;9.224;2023-02-01T08:05:17;30.05;;;15.52;;
50128;SDS011;36026;45.478;9.224;2023-02-01T08:08:19;28.80;;;16.63;;
50128;SDS011;36026;45.478;9.224;2023-02-01T08:11:23;27.98;;;15.80;;
50128;SDS011;36026;45.478;9.224;2023-02-01T08:14:25;28.20;;;15.40;;
50128;SDS011;36026;45.478;9.224;2023-02-01T08:17:27;30.63;;;14.80;;
50128;SDS011;36026;45.478;9.224;2023-02-01T08:20:29;29.92;;;16.38;;
50128;SDS011;36026;45.478;9.224;2023-02-01T08:23:31;36.10;;;16.70;;
50128;SDS011;36026;45.478;9.224;2023-02-01T08:26:33;27.88;;;15.57;;
50128;SDS011;36026;45.478;9.224;2023-02-01T08:29:35;25.27;;;14.43;;
50128;SDS011;36026;45.478;9.224;2023-02-01T08:32:37;24.52;;;15.43;;
50128;SDS011;36026;45.478;9.224;2023-02-01T08:35:38;25.23;;;14.90;;
50128;SDS011;36026;45.478;9.224;2023-02-01T08:38:40;32.35;;;15.07;;
50128;SDS011;36026;45.478;9.224;2023-02-01T08:41:43;28.73;;;14.95;;
50128;SDS011;36026;45.478;9.224;2023-02-01T08:45:06;27.65;;;15.68;;
50128;SDS011;36026;45.478;9.224;2023-02-01T08:48:08;29.95;;;17.85;;
50128;SDS011;36026;45.478;9.224;2023-02-01T08:51:11;33.40;;;21.38;;
50128;SDS011;36026;45.478;9.224;2023-02-01T08:54:14;27.35;;;17.08;;
50128;SDS011;36026;45.478;9.224;2023-02-01T08:57:17;30.50;;;17.20;;
50128;SDS011;36026;45.478;9.224;2023-02-01T09:00:19;29.27;;;17.37;;
50128;SDS011;36026;45.478;9.224;2023-02-01T09:03:21;32.67;;;17.77;;
50128;SDS011;36026;45.478;9.224;2023-02-01T09:06:23;31.40;;;16.92;;
50128;SDS011;36026;45.478;9.224;2023-02-01T09:09:27;30.40;;;17.02;;
50128;SDS011;36026;45.478;9.224;2023-02-01T09:12:31;32.10;;;17.90;;
50128;SDS011;36026;45.478;9.224;2023-02-01T09:15:34;31.38;;;18.75;;
50128;SDS011;36026;45.478;9.224;2023-02-01T09:18:35;27.27;;;17.23;;
50128;SDS011;36026;45.478;9.224;2023-02-01T09:21:37;28.63;;;16.33;;
50128;SDS011;36026;45.478;9.224;2023-02-01T09:24:39;29.33;;;15.27;;
50128;SDS011;36026;45.478;9.224;2023-02-01T09:27:42;27.92;;;14.48;;
50128;SDS011;36026;45.478;9.224;2023-02-01T09:30:43;23.30;;;13.95;;
50128;SDS011;36026;45.478;9.224;2023-02-01T09:33:45;24.80;;;13.43;;
50128;SDS011;36026;45.478;9.224;2023-02-01T09:36:47;22.55;;;13.80;;
50128;SDS011;36026;45.478;9.224;2023-02-01T09:39:48;24.00;;;13.25;;
50128;SDS011;36026;45.478;9.224;2023-02-01T09:42:59;24.60;;;13.35;;
50128;SDS011;36026;45.478;9.224;2023-02-01T09:46:11;22.58;;;13.40;;
50128;SDS011;36026;45.478;9.224;2023-02-01T09:49:20;21.60;;;12.52;;
50128;SDS011;36026;45.478;9.224;2023-02-01T09:52:25;22.38;;;13.10;;
50128;SDS011;36026;45.478;9.224;2023-02-01T09:55:32;25.75;;;13.00;;
50128;SDS011;36026;45.478;9.224;2023-02-01T09:58:39;25.67;;;12.50;;
50128;SDS011;36026;45.478;9.224;2023-02-01T10:01:44;25.13;;;11.80;;
50128;SDS011;36026;45.478;9.224;2023-02-01T10:04:45;25.15;;;12.23;;
50128;SDS011;36026;45.478;9.224;2023-02-01T10:07:51;21.15;;;12.82;;
50128;SDS011;36026;45.478;9.224;2023-02-01T10:11:01;21.05;;;11.10;;
50128;SDS011;36026;45.478;9.224;2023-02-01T10:14:08;18.63;;;11.50;;
50128;SDS011;36026;45.478;9.224;2023-02-01T10:17:16;20.35;;;11.32;;
50128;SDS011;36026;45.478;9.224;2023-02-01T10:20:26;22.73;;;12.35;;
50128;SDS011;36026;45.478;9.224;2023-02-01T10:26:53;21.17;;;11.30;;
50128;SDS011;36026;45.478;9.224;2023-02-01T10:29:59;15.73;;;10.55;;
50128;SDS011;36026;45.478;9.224;2023-02-01T10:33:12;18.50;;;9.40;;
50128;SDS011;36026;45.478;9.224;2023-02-01T10:36:19;19.65;;;10.00;;
50128;SDS011;36026;45.478;9.224;2023-02-01T10:39:23;21.80;;;9.70;;
50128;SDS011;36026;45.478;9.224;2023-02-01T10:42:25;17.83;;;9.75;;
50128;SDS011;36026;45.478;9.224;2023-02-01T10:45:29;20.03;;;9.80;;
50128;SDS011;36026;45.478;9.224;2023-02-01T10:48:32;17.77;;;9.55;;
50128;SDS011;36026;45.478;9.224;2023-02-01T10:51:38;20.23;;;9.20;;
50128;SDS011;36026;45.478;9.224;2023-02-01T10:54:44;13.40;;;8.80;;
50128;SDS011;36026;45.478;9.224;2023-02-01T10:57:48;15.50;;;9.25;;
50128;SDS011;36026;45.478;9.224;2023-02-01T11:00:59;14.73;;;9.77;;
50128;SDS011;36026;45.478;9.224;2023-02-01T11:04:03;19.10;;;9.75;;
50128;SDS011;36026;45.478;9.224;2023-02-01T11:07:06;14.10;;;8.55;;
50128;SDS011;36026;45.478;9.224;2023-02-01T11:10:33;14.70;;;8.82;;
50128;SDS011;36026;45.478;9.224;2023-02-01T11:13:37;17.50;;;9.00;;
50128;SDS011;36026;45.478;9.224;2023-02-01T11:16:41;18.55;;;8.65;;
50128;SDS011;36026;45.478;9.224;2023-02-01T11:19:50;15.07;;;7.90;;
50128;SDS011;36026;45.478;9.224;2023-02-01T11:22:57;16.70;;;6.80;;
50128;SDS011;36026;45.478;9.224;2023-02-01T11:26:00;19.20;;;6.50;;
50128;SDS011;36026;45.478;9.224;2023-02-01T11:29:03;11.32;;;6.57;;
50128;SDS011;36026;45.478;9.224;2023-02-01T11:32:07;15.73;;;7.03;;
50128;SDS011;36026;45.478;9.224;2023-02-01T11:35:11;12.50;;;6.20;;
50128;SDS011;36026;45.478;9.224;2023-02-01T11:38:20;12.48;;;6.43;;
50128;SDS011;36026;45.478;9.224;2023-02-01T11:41:24;14.07;;;6.43;;
50128;SDS011;36026;45.478;9.224;2023-02-01T11:44:30;12.02;;;5.85;;
50128;SDS011;36026;45.478;9.224;2023-02-01T11:47:39;12.93;;;6.20;;
50128;SDS011;36026;45.478;9.224;2023-02-01T11:50:42;12.20;;;5.72;;
50128;SDS011;36026;45.478;9.224;2023-02-01T11:53:56;14.25;;;5.80;;
50128;SDS011;36026;45.478;9.224;2023-02-01T11:57:10;11.05;;;5.00;;
50128;SDS011;36026;45.478;9.224;2023-02-01T12:07:48;9.18;;;5.28;;
50128;SDS011;36026;45.478;9.224;2023-02-01T12:11:01;11.10;;;5.38;;
50128;SDS011;36026;45.478;9.224;2023-02-01T12:17:22;10.95;;;5.50;;
50128;SDS011;36026;45.478;9.224;2023-02-01T12:24:20;11.00;;;4.90;;
50128;SDS011;36026;45.478;9.224;2023-02-01T12:30:52;13.35;;;4.93;;
50128;SDS011;36026;45.478;9.224;2023-02-01T12:34:14;10.90;;;5.30;;
50128;SDS011;36026;45.478;9.224;2023-02-01T12:37:24;18.00;;;6.72;;
50128;SDS011;36026;45.478;9.224;2023-02-01T12:40:39;13.50;;;5.90;;
50128;SDS011;36026;45.478;9.224;2023-02-01T12:43:48;15.23;;;5.68;;
50128;SDS011;36026;45.478;9.224;2023-02-01T12:46:52;11.80;;;5.65;;
50128;SDS011;36026;45.478;9.224;2023-02-01T12:49:57;9.77;;;5.25;;
50128;SDS011;36026;45.478;9.224;2023-02-01T12:53:06;10.43;;;5.50;;
50128;SDS011;36026;45.478;9.224;2023-02-01T12:56:12;15.25;;;5.50;;
50128;SDS011;36026;45.478;9.224;2023-02-01T12:59:19;11.77;;;5.38;;
50128;SDS011;36026;45.478;9.224;2023-02-01T13:02:25;13.07;;;5.35;;
50128;SDS011;36026;45.478;9.224;2023-02-01T13:05:34;10.55;;;5.43;;
50128;SDS011;36026;45.478;9.224;2023-02-01T13:08:43;11.30;;;5.47;;
50128;SDS011;36026;45.478;9.224;2023-02-01T13:11:51;9.75;;;4.63;;
50128;SDS011;36026;45.478;9.224;2023-02-01T13:14:55;12.70;;;5.70;;
50128;SDS011;36026;45.478;9.224;2023-02-01T13:18:00;15.80;;;5.45;;
50128;SDS011;36026;45.478;9.224;2023-02-01T13:21:04;10.18;;;5.65;;
50128;SDS011;36026;45.478;9.224;2023-02-01T13:24:10;10.57;;;6.32;;
50128;SDS011;36026;45.478;9.224;2023-02-01T13:27:27;10.30;;;5.43;;
50128;SDS011;36026;45.478;9.224;2023-02-01T13:30:33;8.77;;;5.40;;
50128;SDS011;36026;45.478;9.224;2023-02-01T13:33:52;8.35;;;4.95;;
50128;SDS011;36026;45.478;9.224;2023-02-01T13:37:05;9.15;;;5.05;;
50128;SDS011;36026;45.478;9.224;2023-02-01T13:40:18;9.27;;;4.60;;
50128;SDS011;36026;45.478;9.224;2023-02-01T13:43:30;8.43;;;4.07;;
50128;SDS011;36026;45.478;9.224;2023-02-01T13:46:38;8.88;;;4.35;;
50128;SDS011;36026;45.478;9.224;2023-02-01T13:49:41;9.10;;;4.20;;
50128;SDS011;36026;45.478;9.224;2023-02-01T13:52:43;10.48;;;4.70;;
50128;SDS011;36026;45.478;9.224;2023-02-01T13:55:46;8.88;;;4.43;;
50128;SDS011;36026;45.478;9.224;2023-02-01T13:58:52;10.60;;;5.07;;
50128;SDS011;36026;45.478;9.224;2023-02-01T14:01:53;7.55;;;4.05;;
50128;SDS011;36026;45.478;9.224;2023-02-01T14:04:55;13.38;;;4.70;;
50128;SDS011;36026;45.478;9.224;2023-02-01T14:08:09;9.13;;;4.55;;
50128;SDS011;36026;45.478;9.224;2023-02-01T14:11:32;8.75;;;4.15;;
50128;SDS011;36026;45.478;9.224;2023-02-01T14:14:40;10.48;;;4.47;;
50128;SDS011;36026;45.478;9.224;2023-02-01T14:17:42;15.23;;;3.88;;
50128;SDS011;36026;45.478;9.224;2023-02-01T14:20:45;11.55;;;3.88;;
50128;SDS011;36026;45.478;9.224;2023-02-01T14:23:55;15.38;;;9.23;;
50128;SDS011;36026;45.478;9.224;2023-02-01T14:26:59;16.95;;;8.38;;
50128;SDS011;36026;45.478;9.224;2023-02-01T14:30:05;17.23;;;9.52;;
50128;SDS011;36026;45.478;9.224;2023-02-01T14:33:12;49.75;;;26.33;;
50128;SDS011;36026;45.478;9.224;2023-02-01T14:36:20;78.95;;;39.63;;
50128;SDS011;36026;45.478;9.224;2023-02-01T14:39:23;14.43;;;6.30;;
50128;SDS011;36026;45.478;9.224;2023-02-01T14:42:38;6.85;;;3.83;;
50128;SDS011;36026;45.478;9.224;2023-02-01T14:45:49;9.02;;;4.22;;
50128;SDS011;36026;45.478;9.224;2023-02-01T14:48:51;11.13;;;3.88;;
50128;SDS011;36026;45.478;9.224;2023-02-01T14:51:53;9.30;;;3.47;;
50128;SDS011;36026;45.478;9.224;2023-02-01T14:54:56;10.35;;;4.03;;
50128;SDS011;36026;45.478;9.224;2023-02-01T14:58:05;8.20;;;3.50;;
50128;SDS011;36026;45.478;9.224;2023-02-01T15:01:15;10.43;;;3.72;;
50128;SDS011;36026;45.478;9.224;2023-02-01T15:04:19;8.95;;;3.92;;
50128;SDS011;36026;45.478;9.224;2023-02-01T15:07:22;7.00;;;3.50;;
50128;SDS011;36026;45.478;9.224;2023-02-01T15:10:26;13.65;;;4.47;;
50128;SDS011;36026;45.478;9.224;2023-02-01T15:13:28;7.32;;;4.32;;
50128;SDS011;36026;45.478;9.224;2023-02-01T15:16:31;10.15;;;4.28;;
50128;SDS011;36026;45.478;9.224;2023-02-01T15:19:33;8.18;;;3.58;;
50128;SDS011;36026;45.478;9.224;2023-02-01T15:22:34;10.63;;;4.05;;
50128;SDS011;36026;45.478;9.224;2023-02-01T15:25:37;8.35;;;4.22;;
50128;SDS011;36026;45.478;9.224;2023-02-01T15:28:39;9.05;;;4.60;;
50128;SDS011;36026;45.478;9.224;2023-02-01T15:31:43;10.05;;;4.75;;
50128;SDS011;36026;45.478;9.224;2023-02-01T15:34:47;9.55;;;4.28;;
50128;SDS011;36026;45.478;9.224;2023-02-01T15:37:49;13.95;;;4.28;;
50128;SDS011;36026;45.478;9.224;2023-02-01T15:40:54;8.38;;;4.15;;
50128;SDS011;36026;45.478;9.224;2023-02-01T15:44:03;14.73;;;5.07;;
50128;SDS011;36026;45.478;9.224;2023-02-01T15:47:23;10.63;;;5.22;;
50128;SDS011;36026;45.478;9.224;2023-02-01T15:50:26;10.48;;;5.32;;
50128;SDS011;36026;45.478;9.224;2023-02-01T15:53:30;7.78;;;4.90;;
50128;SDS011;36026;45.478;9.224;2023-02-01T15:56:33;11.35;;;5.22;;
50128;SDS011;36026;45.478;9.224;2023-02-01T15:59:37;12.77;;;5.55;;
50128;SDS011;36026;45.478;9.224;2023-02-01T16:02:52;13.32;;;5.85;;
50128;SDS011;36026;45.478;9.224;2023-02-01T16:05:55;13.35;;;4.68;;
50128;SDS011;36026;45.478;9.224;2023-02-01T16:09:00;12.80;;;4.70;;
50128;SDS011;36026;45.478;9.224;2023-02-01T16:15:23;9.27;;;4.55;;
50128;SDS011;36026;45.478;9.224;2023-02-01T16:18:27;11.93;;;4.80;;
50128;SDS011;36026;45.478;9.224;2023-02-01T16:21:28;12.53;;;5.20;;
50128;SDS011;36026;45.478;9.224;2023-02-01T16:24:30;12.70;;;5.72;;
50128;SDS011;36026;45.478;9.224;2023-02-01T16:27:33;9.68;;;4.88;;
50128;SDS011;36026;45.478;9.224;2023-02-01T16:30:35;13.90;;;6.53;;
50128;SDS011;36026;45.478;9.224;2023-02-01T16:33:38;11.68;;;6.10;;
50128;SDS011;36026;45.478;9.224;2023-02-01T16:36:39;16.98;;;5.93;;
50128;SDS011;36026;45.478;9.224;2023-02-01T16:39:41;13.30;;;7.03;;
50128;SDS011;36026;45.478;9.224;2023-02-01T16:42:43;14.25;;;6.43;;
50128;SDS011;36026;45.478;9.224;2023-02-01T16:45:45;12.73;;;5.78;;
50128;SDS011;36026;45.478;9.224;2023-02-01T16:48:50;15.02;;;6.10;;
50128;SDS011;36026;45.478;9.224;2023-02-01T16:51:55;16.33;;;5.80;;
50128;SDS011;36026;45.478;9.224;2023-02-01T16:54:58;13.45;;;6.35;;
50128;SDS011;36026;45.478;9.224;2023-02-01T16:58:00;10.60;;;5.97;;
50128;SDS011;36026;45.478;9.224;2023-02-01T17:01:01;12.35;;;6.18;;
50128;SDS011;36026;45.478;9.224;2023-02-01T17:04:04;15.60;;;6.50;;
50128;SDS011;36026;45.478;9.224;2023-02-01T17:07:06;12.87;;;6.00;;
50128;SDS011;36026;45.478;9.224;2023-02-01T17:10:11;15.60;;;7.00;;
50128;SDS011;36026;45.478;9.224;2023-02-01T17:13:20;16.35;;;7.38;;
50128;SDS011;36026;45.478;9.224;2023-02-01T17:16:22;15.52;;;8.23;;
50128;SDS011;36026;45.478;9.224;2023-02-01T17:19:27;18.05;;;7.60;;
50128;SDS011;36026;45.478;9.224;2023-02-01T17:22:29;14.03;;;7.50;;
50128;SDS011;36026;45.478;9.224;2023-02-01T17:25:31;19.20;;;6.88;;
50128;SDS011;36026;45.478;9.224;2023-02-01T17:28:33;13.23;;;7.55;;
50128;SDS011;36026;45.478;9.224;2023-02-01T17:31:36;13.13;;;7.07;;
50128;SDS011;36026;45.478;9.224;2023-02-01T17:34:40;17.42;;;7.47;;
50128;SDS011;36026;45.478;9.224;2023-02-01T17:37:42;15.80;;;7.40;;
50128;SDS011;36026;45.478;9.224;2023-02-01T17:40:44;16.17;;;7.07;;
50128;SDS011;36026;45.478;9.224;2023-02-01T17:43:45;13.35;;;6.72;;
50128;SDS011;36026;45.478;9.224;2023-02-01T17:46:47;13.77;;;6.35;;
50128;SDS011;36026;45.478;9.224;2023-02-01T17:49:50;17.23;;;6.95;;
50128;SDS011;36026;45.478;9.224;2023-02-01T17:52:55;17.30;;;6.28;;
50128;SDS011;36026;45.478;9.224;2023-02-01T17:55:57;16.58;;;7.25;;
50128;SDS011;36026;45.478;9.224;2023-02-01T17:58:59;15.27;;;7.38;;
50128;SDS011;36026;45.478;9.224;2023-02-01T18:02:00;15.90;;;7.25;;
50128;SDS011;36026;45.478;9.224;2023-02-01T18:05:07;17.30;;;7.20;;
50128;SDS011;36026;45.478;9.224;2023-02-01T18:08:12;12.93;;;6.53;;
50128;SDS011;36026;45.478;9.224;2023-02-01T18:11:15;13.20;;;7.40;;
50128;SDS011;36026;45.478;9.224;2023-02-01T18:14:17;12.75;;;7.50;;
50128;SDS011;36026;45.478;9.224;2023-02-01T18:17:19;16.42;;;7.82;;
50128;SDS011;36026;45.478;9.224;2023-02-01T18:20:23;17.15;;;7.45;;
50128;SDS011;36026;45.478;9.224;2023-02-01T18:23:25;13.20;;;8.00;;
50128;SDS011;36026;45.478;9.224;2023-02-01T18:26:27;12.98;;;7.53;;
50128;SDS011;36026;45.478;9.224;2023-02-01T18:29:29;13.43;;;7.28;;
50128;SDS011;36026;45.478;9.224;2023-02-01T18:32:30;13.27;;;7.30;;
50128;SDS011;36026;45.478;9.224;2023-02-01T18:35:33;24.13;;;8.90;;
50128;SDS011;36026;45.478;9.224;2023-02-01T18:38:35;16.73;;;8.65;;